Portada
METAR-TAF:

METAR-TAF

Aeroports :

Vanua Lava, Vanuatu

latitud: 13-51-06S, longitud: 167-32-13E, altitud: 2 m

Observació

L'informe es va fer fa 2 hores i 25 minuts, a les 12:00 UTC
Vent 5 kt del Nord/Nord-Est
Temperatura 25°C
Humitat 100%
Pressió 1014 hPa

METAR: NVSC 171200Z AUTO 02005KT //// // NCD 25/25 Q1014

Hora: 01:25 (14:25 UTC)

Pronòstic

L'informe es va fer fa 4 hores i 25 minuts, a les 10:00 UTC
Pronòstic vàlid del 17 a les 12 UTC al 18 a les 12 UTC
Vent 12 kt del Sud-Est
Visibilitat 10 km o més
Núvols disperses a una alçada de 2000 ft
Cel ennuvolat a una alçada de 3800 ft
Probabilitat 30%
entre IN i TE UTC
Visibilitat: 9000 m
Cel ennuvolat a una alçada de 1800 ft
xàfecs de pluja
Evolucionant progressivament
l' 17 a les 21 UTC al 17 a les 23 UTC
Vent 15 kt del Sud-Est

TAF: NVSC 171000Z 1712/1812 13512KT 9999 SCT020 BKN038 PROB30 INTER 1712/1718 9000 -SHRA BKN018 BECMG 1721/1723 13015KT

Observacions i pronòstics meteorològics de més de 4000 aeroports (METAR i TAF).

Les estacions disponibles són els punts grocs i vermells al mapa.

Posi el ratolí al punt desitjat per veure el nom de l'estació.

Feu clic per veure les observacions i els pronòstics meteorològics.

Per canviar el mapa: feu clic els botons verds amb una creu de color negre per apropar; al botó verd amb un guió per allunyar la imatge; o en les fletxes verdes per a mapes adjacents.


METAR-TAF: